createdAt,value
2017-09-11T00:02:20.090Z,15.22
2017-09-11T00:04:46.333Z,15.20
2017-09-11T00:07:12.545Z,15.19
2017-09-11T00:09:39.109Z,15.15
2017-09-11T00:12:05.318Z,15.14
2017-09-11T00:14:31.557Z,15.11
2017-09-11T00:16:57.998Z,15.05
2017-09-11T00:19:24.340Z,15.03
2017-09-11T00:22:17.306Z,15.00
2017-09-11T00:24:43.525Z,14.96
2017-09-11T00:27:09.740Z,14.94
2017-09-11T00:29:36.076Z,14.91
2017-09-11T00:32:02.325Z,14.89
2017-09-11T00:34:28.546Z,14.87
2017-09-11T00:36:54.868Z,14.84
2017-09-11T00:39:21.105Z,14.83
2017-09-11T00:41:47.333Z,14.79
2017-09-11T00:44:13.585Z,14.78
2017-09-11T00:46:40.585Z,14.75
2017-09-11T00:49:06.823Z,14.71
2017-09-11T00:51:33.449Z,14.73
2017-09-11T00:53:59.701Z,14.69
2017-09-11T00:56:25.940Z,14.69
2017-09-11T00:58:52.215Z,14.71
2017-09-11T01:01:18.437Z,14.63
2017-09-11T01:03:44.673Z,14.62
2017-09-11T01:06:10.942Z,14.63
2017-09-11T01:08:37.173Z,14.66
2017-09-11T01:11:03.401Z,14.65
2017-09-11T01:13:29.647Z,14.69
2017-09-11T01:15:56.608Z,14.72
2017-09-11T01:18:22.826Z,14.76
2017-09-11T01:20:49.860Z,14.72
2017-09-11T01:23:16.843Z,14.74
2017-09-11T01:25:43.440Z,14.74
2017-09-11T01:28:09.687Z,14.72
2017-09-11T01:30:36.651Z,14.72
2017-09-11T01:33:02.852Z,14.75
2017-09-11T01:35:30.047Z,14.83
2017-09-11T01:37:56.244Z,14.82
2017-09-11T01:40:22.456Z,14.81
2017-09-11T01:42:49.430Z,14.83
2017-09-11T01:45:15.646Z,14.77
2017-09-11T01:47:41.855Z,14.81
2017-09-11T01:50:08.848Z,14.91
2017-09-11T01:52:35.067Z,14.89
2017-09-11T01:55:01.277Z,14.89
2017-09-11T01:57:27.538Z,14.89
2017-09-11T01:59:53.753Z,14.89
2017-09-11T02:02:19.939Z,14.92
2017-09-11T02:04:46.899Z,14.94
2017-09-11T02:07:13.841Z,14.95
2017-09-11T02:09:40.800Z,14.98
2017-09-11T02:12:07.034Z,15.00
2017-09-11T02:14:33.226Z,15.01
2017-09-11T02:17:00.172Z,15.02
2017-09-11T02:19:27.248Z,15.07
2017-09-11T02:21:53.500Z,15.12
2017-09-11T02:24:19.715Z,15.14
2017-09-11T02:26:45.976Z,15.13
2017-09-11T02:29:12.192Z,15.13
2017-09-11T02:31:38.408Z,15.16
2017-09-11T02:34:04.670Z,15.14
2017-09-11T02:36:30.918Z,15.09
2017-09-11T02:38:57.861Z,15.10
2017-09-11T02:41:24.824Z,15.18
2017-09-11T02:43:51.756Z,15.15
2017-09-11T02:46:18.708Z,15.18
2017-09-11T02:48:45.701Z,15.20
2017-09-11T02:51:11.892Z,15.21
2017-09-11T02:53:38.116Z,15.25
2017-09-11T02:56:04.367Z,15.25
2017-09-11T02:58:30.582Z,15.28
2017-09-11T03:00:56.855Z,15.27
2017-09-11T03:03:23.054Z,15.28
2017-09-11T03:05:49.259Z,15.25
2017-09-11T03:08:15.829Z,15.24
2017-09-11T03:10:42.028Z,15.18
2017-09-11T03:13:08.232Z,15.24
2017-09-11T03:15:35.176Z,15.21
2017-09-11T03:18:02.140Z,15.18
2017-09-11T03:20:28.468Z,15.17
2017-09-11T03:22:54.670Z,15.16
2017-09-11T03:25:21.619Z,15.20
2017-09-11T03:27:48.593Z,15.21
2017-09-11T03:30:14.823Z,15.25
2017-09-11T03:32:41.038Z,15.30
2017-09-11T03:35:07.264Z,15.31
2017-09-11T03:37:34.209Z,15.32
2017-09-11T03:40:01.151Z,15.32
2017-09-11T03:42:28.108Z,15.34
2017-09-11T03:44:54.317Z,15.33
2017-09-11T03:47:21.297Z,15.34
2017-09-11T03:49:47.492Z,15.34
2017-09-11T03:52:14.432Z,15.29
2017-09-11T03:54:41.407Z,15.35
2017-09-11T03:57:07.608Z,15.34
2017-09-11T03:59:34.555Z,15.34
2017-09-11T04:02:01.791Z,15.35
2017-09-11T04:04:28.898Z,15.39
2017-09-11T04:06:56.799Z,15.44
2017-09-11T04:09:23.161Z,15.45
2017-09-11T04:11:51.024Z,15.48
2017-09-11T04:14:18.187Z,15.48
2017-09-11T04:16:45.384Z,15.49
2017-09-11T04:19:11.673Z,15.51
2017-09-11T04:21:37.885Z,15.55
2017-09-11T04:24:05.778Z,15.55
2017-09-11T04:26:32.813Z,15.56
2017-09-11T04:28:59.363Z,15.57
2017-09-11T04:31:25.565Z,15.57
2017-09-11T04:33:52.138Z,15.57
2017-09-11T04:36:18.341Z,15.49
2017-09-11T04:38:44.556Z,15.35
2017-09-11T04:41:10.796Z,15.29
2017-09-11T04:43:37.018Z,15.22
2017-09-11T04:46:03.270Z,15.14
2017-09-11T04:48:29.513Z,15.05
2017-09-11T04:50:55.734Z,14.94
2017-09-11T04:53:21.948Z,14.79
2017-09-11T04:55:48.161Z,14.68
2017-09-11T04:58:14.360Z,14.57
2017-09-11T05:00:41.376Z,14.54
2017-09-11T05:03:07.601Z,14.48
2017-09-11T05:05:33.802Z,14.46
2017-09-11T05:08:00.041Z,14.50
2017-09-11T05:10:26.248Z,14.47
2017-09-11T05:12:52.454Z,14.44
2017-09-11T05:15:18.934Z,14.43
2017-09-11T05:17:45.127Z,14.43
2017-09-11T05:20:11.344Z,14.44
2017-09-11T05:22:38.325Z,14.50
2017-09-11T05:25:04.549Z,14.46
2017-09-11T05:27:30.759Z,14.49
2017-09-11T05:29:56.983Z,14.52
2017-09-11T05:32:23.231Z,14.54
2017-09-11T05:34:49.782Z,14.59
2017-09-11T05:37:15.999Z,14.57
2017-09-11T05:39:42.212Z,14.58
2017-09-11T05:42:08.459Z,14.59
2017-09-11T05:44:34.660Z,14.59
2017-09-11T05:47:00.869Z,14.63
2017-09-11T05:49:27.867Z,14.67
2017-09-11T05:51:54.083Z,14.70
2017-09-11T05:54:27.369Z,14.69
2017-09-11T05:56:53.581Z,14.71
2017-09-11T05:59:19.803Z,14.72
2017-09-11T06:01:46.055Z,14.78
2017-09-11T06:04:12.312Z,14.85
2017-09-11T06:06:38.529Z,14.89
2017-09-11T06:09:04.755Z,14.94
2017-09-11T06:11:30.992Z,15.00
2017-09-11T06:13:57.219Z,15.10
2017-09-11T06:16:23.484Z,15.12
2017-09-11T06:18:50.475Z,15.13
2017-09-11T06:21:16.682Z,15.18
2017-09-11T06:23:42.888Z,15.19
2017-09-11T06:26:10.187Z,15.25
2017-09-11T06:28:36.389Z,15.29
2017-09-11T06:31:02.600Z,15.30
2017-09-11T06:33:29.904Z,15.37
2017-09-11T06:35:56.115Z,15.43
2017-09-11T06:38:22.321Z,15.44
2017-09-11T06:40:48.556Z,15.46
2017-09-11T06:43:14.771Z,15.46
2017-09-11T06:45:41.734Z,15.48
2017-09-11T06:48:08.293Z,15.53
2017-09-11T06:50:34.496Z,15.52
2017-09-11T06:53:00.716Z,15.55
2017-09-11T06:55:26.947Z,15.54
2017-09-11T06:57:53.161Z,15.55
2017-09-11T07:00:20.136Z,15.58
2017-09-11T07:02:46.349Z,15.57
2017-09-11T07:05:12.605Z,15.63
2017-09-11T07:07:38.799Z,15.63
2017-09-11T07:10:05.016Z,15.63
2017-09-11T07:12:50.843Z,15.71
2017-09-11T07:15:17.077Z,15.71
2017-09-11T07:17:43.305Z,15.72
2017-09-11T07:20:09.532Z,15.75
2017-09-11T07:22:35.752Z,15.79
2017-09-11T07:25:01.965Z,15.80
2017-09-11T07:27:28.201Z,15.82
2017-09-11T07:29:54.403Z,15.87
2017-09-11T07:32:20.610Z,15.92
2017-09-11T07:34:47.574Z,15.92
2017-09-11T07:37:14.639Z,15.94
2017-09-11T07:39:40.856Z,16.00
2017-09-11T07:42:07.085Z,16.01
2017-09-11T07:44:33.301Z,16.01
2017-09-11T07:47:00.255Z,16.02
2017-09-11T07:49:26.466Z,16.06
2017-09-11T07:51:53.449Z,16.05
2017-09-11T07:54:19.652Z,16.10
2017-09-11T07:56:46.600Z,16.09
2017-09-11T07:59:12.852Z,16.11
2017-09-11T08:01:39.062Z,16.14
2017-09-11T08:04:05.520Z,16.17
2017-09-11T08:06:31.728Z,16.26
2017-09-11T08:08:57.966Z,16.33
2017-09-11T08:11:24.211Z,16.45
2017-09-11T08:13:50.434Z,16.44
2017-09-11T08:16:16.631Z,16.38
2017-09-11T08:18:42.858Z,16.36
2017-09-11T08:21:09.059Z,16.38
2017-09-11T08:23:36.012Z,16.41
2017-09-11T08:26:03.323Z,16.36
2017-09-11T08:28:29.551Z,16.36
2017-09-11T08:30:55.769Z,16.38
2017-09-11T08:33:22.028Z,16.40
2017-09-11T08:35:48.249Z,16.40
2017-09-11T08:38:14.684Z,16.44
2017-09-11T08:40:40.924Z,16.40
2017-09-11T08:43:07.136Z,16.38
2017-09-11T08:45:33.349Z,16.43
2017-09-11T08:47:59.599Z,16.47
2017-09-11T08:50:25.815Z,16.58
2017-09-11T08:52:52.015Z,16.71
2017-09-11T08:55:18.261Z,16.77
2017-09-11T08:57:44.466Z,16.83
2017-09-11T09:00:10.678Z,16.92
2017-09-11T09:02:36.895Z,16.76
2017-09-11T09:05:03.829Z,16.78
2017-09-11T09:07:30.775Z,16.67
2017-09-11T09:09:57.765Z,16.81
2017-09-11T09:12:23.991Z,17.02
2017-09-11T09:14:50.233Z,17.13
2017-09-11T09:17:16.471Z,17.06
2017-09-11T09:19:42.682Z,17.12
2017-09-11T09:22:08.887Z,17.14
2017-09-11T09:24:35.115Z,17.29
2017-09-11T09:27:01.331Z,17.31
2017-09-11T09:29:28.271Z,17.43
2017-09-11T09:31:55.262Z,17.53
2017-09-11T09:34:21.462Z,17.63
2017-09-11T09:36:47.670Z,17.61
2017-09-11T09:39:14.856Z,17.64
2017-09-11T09:41:41.072Z,17.75
2017-09-11T09:44:07.267Z,17.68
2017-09-11T09:46:34.469Z,17.70
2017-09-11T09:49:00.676Z,17.98
2017-09-11T09:51:26.885Z,17.86
2017-09-11T09:53:53.852Z,17.84
2017-09-11T09:56:20.061Z,18.01
2017-09-11T09:58:47.008Z,18.06
2017-09-11T10:01:13.249Z,18.08
2017-09-11T10:03:39.469Z,18.05
2017-09-11T10:06:05.692Z,17.97
2017-09-11T10:08:31.908Z,17.79
2017-09-11T10:10:59.123Z,17.70
2017-09-11T10:13:25.343Z,17.69
2017-09-11T10:15:51.554Z,17.95
2017-09-11T10:18:17.778Z,17.89
2017-09-11T10:20:44.018Z,18.04
2017-09-11T10:23:10.221Z,18.04
2017-09-11T10:25:36.439Z,18.09
2017-09-11T10:28:02.669Z,18.15
2017-09-11T10:30:29.636Z,18.14
2017-09-11T10:32:55.851Z,18.10
2017-09-11T10:35:22.303Z,18.03
2017-09-11T10:37:48.494Z,18.00
2017-09-11T10:40:15.481Z,18.12
2017-09-11T10:42:41.710Z,18.08
2017-09-11T10:45:07.912Z,18.09
2017-09-11T10:47:34.128Z,18.22
2017-09-11T10:50:00.691Z,18.41
2017-09-11T10:52:26.903Z,18.55
2017-09-11T10:54:53.120Z,18.83
2017-09-11T10:57:19.333Z,18.96
2017-09-11T10:59:46.282Z,18.94
2017-09-11T11:02:13.227Z,18.73
2017-09-11T11:04:40.423Z,18.52
2017-09-11T11:07:06.629Z,18.41
2017-09-11T11:09:32.853Z,18.44
2017-09-11T11:11:59.106Z,18.52
2017-09-11T11:14:25.306Z,18.77
2017-09-11T11:16:51.507Z,18.67
2017-09-11T11:19:18.484Z,18.52
2017-09-11T11:21:44.687Z,18.50
2017-09-11T11:24:11.637Z,18.70
2017-09-11T11:26:38.600Z,18.81
2017-09-11T11:29:04.800Z,18.56
2017-09-11T11:31:31.755Z,18.71
2017-09-11T11:33:57.993Z,18.71
2017-09-11T11:36:24.200Z,18.73
2017-09-11T11:38:51.146Z,18.92
2017-09-11T11:41:18.216Z,18.82
2017-09-11T11:43:44.418Z,18.94
2017-09-11T11:46:11.368Z,19.15
2017-09-11T11:48:38.559Z,19.14
2017-09-11T11:51:04.775Z,19.10
2017-09-11T11:53:30.985Z,19.03
2017-09-11T11:55:57.220Z,19.21
2017-09-11T11:58:23.445Z,19.26
2017-09-11T12:00:49.651Z,19.17
2017-09-11T12:03:16.615Z,19.29
2017-09-11T12:05:42.837Z,19.16
2017-09-11T12:08:09.780Z,19.33
2017-09-11T12:10:36.747Z,19.64
2017-09-11T12:13:02.986Z,19.75
2017-09-11T12:15:29.192Z,19.88
2017-09-11T12:17:55.427Z,20.14
2017-09-11T12:20:21.628Z,19.97
2017-09-11T12:22:48.606Z,19.83
2017-09-11T12:25:14.830Z,20.20
2017-09-11T12:27:41.072Z,20.20
2017-09-11T12:30:07.283Z,20.16
2017-09-11T12:32:33.540Z,19.97
2017-09-11T12:34:59.743Z,19.90
2017-09-11T12:37:25.936Z,19.86
2017-09-11T12:39:53.240Z,20.08
2017-09-11T12:42:19.557Z,19.75
2017-09-11T12:44:45.768Z,19.52
2017-09-11T12:47:12.099Z,19.74
2017-09-11T12:49:38.299Z,19.74
2017-09-11T12:52:05.253Z,19.65
2017-09-11T12:54:32.195Z,19.57
2017-09-11T12:56:59.152Z,19.57
2017-09-11T12:59:25.368Z,19.83
2017-09-11T13:01:52.308Z,20.18
2017-09-11T13:04:19.252Z,19.69
2017-09-11T13:06:46.215Z,19.49
2017-09-11T13:09:13.155Z,19.04
2017-09-11T13:11:40.093Z,18.88
2017-09-11T13:14:07.212Z,18.73
2017-09-11T13:16:33.422Z,18.60
2017-09-11T13:18:59.636Z,18.11
2017-09-11T13:21:25.891Z,17.72
2017-09-11T13:23:52.096Z,17.72
2017-09-11T13:26:18.296Z,17.66
2017-09-11T13:28:44.860Z,17.87
2017-09-11T13:31:11.061Z,18.45
2017-09-11T13:33:37.267Z,19.22
2017-09-11T13:36:04.270Z,19.36
2017-09-11T13:38:30.479Z,19.64
2017-09-11T13:40:56.805Z,19.42
2017-09-11T13:43:23.363Z,19.12
2017-09-11T13:45:49.567Z,18.96
2017-09-11T13:48:15.816Z,19.17
2017-09-11T13:50:42.036Z,19.04
2017-09-11T13:53:08.242Z,19.06
2017-09-11T13:55:34.452Z,18.97
2017-09-11T13:58:01.422Z,19.16
2017-09-11T14:00:27.635Z,19.34
2017-09-11T14:02:53.849Z,19.87
2017-09-11T14:05:20.827Z,20.05
2017-09-11T14:07:47.050Z,19.74
2017-09-11T14:10:13.264Z,19.75
2017-09-11T14:12:39.527Z,19.71
2017-09-11T14:15:05.739Z,19.57
2017-09-11T14:17:31.937Z,19.56
2017-09-11T14:19:58.919Z,19.19
2017-09-11T14:22:25.132Z,19.26
2017-09-11T14:24:51.356Z,19.23
2017-09-11T14:27:17.580Z,19.16
2017-09-11T14:29:43.785Z,19.19
2017-09-11T14:32:10.730Z,19.23
2017-09-11T14:34:38.003Z,19.27
2017-09-11T14:37:04.208Z,19.26
2017-09-11T14:39:31.168Z,19.27
2017-09-11T14:41:58.158Z,19.17
2017-09-11T14:44:24.439Z,18.99
2017-09-11T14:46:51.385Z,19.02
2017-09-11T14:49:18.369Z,19.09
2017-09-11T14:51:44.585Z,19.18
2017-09-11T14:54:10.804Z,19.14
2017-09-11T14:56:37.057Z,18.99
2017-09-11T14:59:03.266Z,18.86
2017-09-11T15:01:29.502Z,18.76
2017-09-11T15:03:55.907Z,18.59
2017-09-11T15:06:22.861Z,18.49
2017-09-11T15:08:49.083Z,18.41
2017-09-11T15:11:15.331Z,18.35
2017-09-11T15:13:41.556Z,18.33
2017-09-11T15:16:07.757Z,18.26
2017-09-11T15:18:34.717Z,18.11
2017-09-11T15:21:01.288Z,17.53
2017-09-11T15:23:27.498Z,16.74
2017-09-11T15:25:53.713Z,16.27
2017-09-11T15:28:19.949Z,15.78
2017-09-11T15:30:46.235Z,15.63
2017-09-11T15:33:12.477Z,15.44
2017-09-11T15:35:39.492Z,15.37
2017-09-11T15:38:05.732Z,15.48
2017-09-11T15:40:31.935Z,15.63
2017-09-11T15:42:58.194Z,15.77
2017-09-11T15:45:24.398Z,15.83
2017-09-11T15:47:50.624Z,15.93
2017-09-11T15:50:17.604Z,15.96
2017-09-11T15:52:44.548Z,16.05
2017-09-11T15:55:11.520Z,16.12
2017-09-11T15:57:37.723Z,16.12
2017-09-11T16:00:04.668Z,16.13
2017-09-11T16:02:31.647Z,16.23
2017-09-11T16:04:57.851Z,16.27
2017-09-11T16:07:24.807Z,16.33
2017-09-11T16:09:51.019Z,16.39
2017-09-11T16:12:17.989Z,16.44
2017-09-11T16:14:44.432Z,16.47
2017-09-11T16:17:10.651Z,16.47
2017-09-11T16:19:36.871Z,16.51
2017-09-11T16:22:03.170Z,16.60
2017-09-11T16:24:30.135Z,16.56
2017-09-11T16:26:57.099Z,16.62
2017-09-11T16:29:23.341Z,16.65
2017-09-11T16:31:49.547Z,16.63
2017-09-11T16:34:15.808Z,16.65
2017-09-11T16:36:42.013Z,16.63
2017-09-11T16:39:08.224Z,16.59
2017-09-11T16:41:34.467Z,16.55
2017-09-11T16:44:00.682Z,16.51
2017-09-11T16:46:27.062Z,16.53
2017-09-11T16:48:53.434Z,16.48
2017-09-11T16:51:19.695Z,16.48
2017-09-11T16:53:46.313Z,16.48
2017-09-11T16:56:12.839Z,16.46
2017-09-11T16:58:40.009Z,16.41
2017-09-11T17:01:06.271Z,16.40
2017-09-11T17:03:32.483Z,16.37
2017-09-11T17:05:58.829Z,16.38
2017-09-11T17:08:25.486Z,16.33
2017-09-11T17:10:51.709Z,16.30
2017-09-11T17:13:17.939Z,16.28
2017-09-11T17:15:44.148Z,16.25
2017-09-11T17:18:10.378Z,16.25
2017-09-11T17:20:36.643Z,16.22
2017-09-11T17:23:03.612Z,16.23
2017-09-11T17:25:30.483Z,16.17
2017-09-11T17:27:57.515Z,16.19
2017-09-11T17:30:23.729Z,16.17
2017-09-11T17:32:49.928Z,16.13
2017-09-11T17:35:17.501Z,16.14
2017-09-11T17:37:44.466Z,16.16
2017-09-11T17:40:10.764Z,16.20
2017-09-11T17:42:38.073Z,16.25
2017-09-11T17:45:04.308Z,16.23
2017-09-11T17:47:30.904Z,16.22
2017-09-11T17:49:57.142Z,16.20
2017-09-11T17:52:23.345Z,16.27
2017-09-11T17:54:50.540Z,16.25
2017-09-11T17:57:16.747Z,16.17
2017-09-11T17:59:43.003Z,16.17
2017-09-11T18:02:09.302Z,16.18
2017-09-11T18:04:35.505Z,16.15
2017-09-11T18:07:02.456Z,16.13
2017-09-11T18:09:29.716Z,16.11
2017-09-11T18:11:55.947Z,16.11
2017-09-11T18:14:22.186Z,16.07
2017-09-11T18:16:48.423Z,16.05
2017-09-11T18:19:14.641Z,16.05
2017-09-11T18:21:40.844Z,15.99
2017-09-11T18:24:07.936Z,15.94
2017-09-11T18:26:34.144Z,15.99
2017-09-11T18:29:00.366Z,15.94
2017-09-11T18:31:26.923Z,15.92
2017-09-11T18:33:53.135Z,15.89
2017-09-11T18:36:19.365Z,15.91
2017-09-11T18:38:46.486Z,15.91
2017-09-11T18:41:12.945Z,15.89
2017-09-11T18:43:39.189Z,15.89
2017-09-11T18:46:05.554Z,15.95
2017-09-11T18:48:31.760Z,15.96
2017-09-11T18:50:57.959Z,15.94
2017-09-11T18:53:24.336Z,15.93
2017-09-11T18:55:50.547Z,15.98
2017-09-11T18:58:16.755Z,16.03
2017-09-11T19:00:42.991Z,16.09
2017-09-11T19:03:09.196Z,16.10
2017-09-11T19:05:35.428Z,16.10
2017-09-11T19:08:01.652Z,16.09
2017-09-11T19:10:27.912Z,16.10
2017-09-11T19:12:54.124Z,16.09
2017-09-11T19:15:20.409Z,16.14
2017-09-11T19:17:47.364Z,16.13
2017-09-11T19:20:14.319Z,16.12
2017-09-11T19:22:40.549Z,16.11
2017-09-11T19:25:06.754Z,16.14
2017-09-11T19:27:33.733Z,16.13
2017-09-11T19:29:59.953Z,16.17
2017-09-11T19:32:26.335Z,16.18
2017-09-11T19:34:52.559Z,16.19
2017-09-11T19:37:19.489Z,16.15
2017-09-11T19:39:45.704Z,16.15
2017-09-11T19:42:11.916Z,16.12
2017-09-11T19:44:38.268Z,16.10
2017-09-11T19:47:04.503Z,16.03
2017-09-11T19:49:30.918Z,16.00
2017-09-11T19:51:57.190Z,15.96
2017-09-11T19:54:23.712Z,15.91
2017-09-11T19:56:49.922Z,15.91
2017-09-11T19:59:16.175Z,15.92
2017-09-11T20:01:42.400Z,15.93
2017-09-11T20:04:08.612Z,15.87
2017-09-11T20:06:34.839Z,15.90
2017-09-11T20:09:01.277Z,15.96
2017-09-11T20:11:27.475Z,15.94
2017-09-11T20:13:53.774Z,15.92
2017-09-11T20:16:20.904Z,15.90
2017-09-11T20:18:48.147Z,15.91
2017-09-11T20:21:14.562Z,15.91
2017-09-11T20:23:41.551Z,15.92
2017-09-11T20:26:07.808Z,15.88
2017-09-11T20:28:34.051Z,15.88
2017-09-11T20:31:00.256Z,15.87
2017-09-11T20:33:26.472Z,15.83
2017-09-11T20:35:53.532Z,15.79
2017-09-11T20:38:19.737Z,15.78
2017-09-11T20:40:46.916Z,15.75
2017-09-11T20:43:13.164Z,15.75
2017-09-11T20:45:39.728Z,15.76
2017-09-11T20:48:06.784Z,15.75
2017-09-11T20:50:33.063Z,15.72
2017-09-11T20:52:59.264Z,15.92
2017-09-11T20:55:26.465Z,15.80
2017-09-11T20:57:52.668Z,15.91
2017-09-11T21:00:19.099Z,15.83
2017-09-11T21:02:45.332Z,15.80
2017-09-11T21:05:11.544Z,15.76
2017-09-11T21:07:37.757Z,15.76
2017-09-11T21:10:04.749Z,15.76
2017-09-11T21:12:30.952Z,15.77
2017-09-11T21:14:57.327Z,15.75
2017-09-11T21:17:23.587Z,15.71
2017-09-11T21:19:50.551Z,15.73
2017-09-11T21:22:16.757Z,15.72
2017-09-11T21:24:43.735Z,15.73
2017-09-11T21:27:10.076Z,15.74
2017-09-11T21:29:36.276Z,15.75
2017-09-11T21:32:02.978Z,15.78
2017-09-11T21:34:29.191Z,15.77
2017-09-11T21:36:55.509Z,15.76
2017-09-11T21:39:21.777Z,15.78
2017-09-11T21:41:48.735Z,15.75
2017-09-11T21:44:15.700Z,15.77
2017-09-11T21:46:41.939Z,15.82
2017-09-11T21:49:08.185Z,15.81
2017-09-11T21:51:34.405Z,15.79
2017-09-11T21:54:00.852Z,15.75
2017-09-11T21:56:27.093Z,15.76
2017-09-11T21:58:53.305Z,15.73
2017-09-11T22:01:19.568Z,15.70
2017-09-11T22:03:45.966Z,15.68
2017-09-11T22:06:12.243Z,15.68
2017-09-11T22:08:39.216Z,15.67
2017-09-11T22:11:05.453Z,15.68
2017-09-11T22:13:31.664Z,15.71
2017-09-11T22:15:57.924Z,15.67
2017-09-11T22:18:24.145Z,15.68
2017-09-11T22:20:50.377Z,15.69
2017-09-11T22:23:16.609Z,15.73
2017-09-11T22:25:42.847Z,15.73
2017-09-11T22:28:09.060Z,15.68
2017-09-11T22:30:35.416Z,15.64
2017-09-11T22:33:02.010Z,15.58
2017-09-11T22:35:28.594Z,15.58
2017-09-11T22:37:54.857Z,15.60
2017-09-11T22:40:21.813Z,15.55
2017-09-11T22:42:48.032Z,15.58
2017-09-11T22:45:14.304Z,15.55
2017-09-11T22:47:41.424Z,15.55
2017-09-11T22:50:07.835Z,15.42
2017-09-11T22:52:34.909Z,15.41
2017-09-11T22:55:01.136Z,15.34
2017-09-11T22:57:27.361Z,15.37
2017-09-11T22:59:53.818Z,15.27
2017-09-11T23:02:20.030Z,15.30
2017-09-11T23:04:46.250Z,15.30
2017-09-11T23:07:12.516Z,15.26
2017-09-11T23:09:38.807Z,15.24
2017-09-11T23:12:05.019Z,15.37
2017-09-11T23:14:31.368Z,15.30
2017-09-11T23:16:57.597Z,15.23
2017-09-11T23:19:23.926Z,15.21
2017-09-11T23:21:50.198Z,15.21
2017-09-11T23:24:16.415Z,15.27
2017-09-11T23:26:42.640Z,15.24
2017-09-11T23:29:09.167Z,15.17
2017-09-11T23:31:35.370Z,15.16
2017-09-11T23:34:01.593Z,15.13
2017-09-11T23:36:27.801Z,15.09
2017-09-11T23:38:54.752Z,15.07
2017-09-11T23:41:21.750Z,15.03
2017-09-11T23:43:48.728Z,15.07
2017-09-11T23:46:15.732Z,15.09
2017-09-11T23:48:42.364Z,15.17
2017-09-11T23:51:08.572Z,15.12
2017-09-11T23:53:34.824Z,15.08
2017-09-11T23:56:01.469Z,15.15
2017-09-11T23:58:27.694Z,15.16
